Time;durP1;ratioP1;P1;durP2;ratioP2;P2;SDS_P1;SDS_P2;PMS_P1;PMS_P2;Temp;Humidity;BMP_temperature;BMP_pressure;BME280_temperature;BME280_humidity;BME280_pressure;Samples;Min_cycle;Max_cycle;Signal;HPM_P1;HPM_P2
2023/01/03 00:01:27;;;;;;;14.35;8.43;;;8.10;99.90;;;;;;5052316;28;20013;-50
2023/01/03 00:03:55;;;;;;;17.55;8.65;;;8.00;99.90;;;;;;5052208;28;20066;-48
2023/01/03 00:06:23;;;;;;;15.07;8.98;;;7.90;99.90;;;;;;5052214;28;20017;-48
2023/01/03 00:08:49;;;;;;;13.30;8.73;;;7.90;99.90;;;;;;5052280;28;20029;-49
2023/01/03 00:12:22;;;;;;;11.57;8.35;;;7.90;99.90;;;;;;5052213;28;20396;-48
2023/01/03 00:14:05;;;;;;;15.85;9.10;;;7.80;99.90;;;;;;5051866;28;20036;-48
2023/01/03 00:16:30;;;;;;;12.80;8.40;;;7.80;99.90;;;;;;5060595;28;20055;-49
2023/01/03 00:18:56;;;;;;;17.83;8.75;;;7.70;99.90;;;;;;5072181;28;20028;-48
2023/01/03 00:21:22;;;;;;;13.85;8.25;;;7.70;99.90;;;;;;5070859;28;20088;-50
2023/01/03 00:23:47;;;;;;;14.90;8.35;;;7.60;99.90;;;;;;5071957;28;20025;-51
2023/01/03 00:26:17;;;;;;;16.15;8.98;;;7.60;99.90;;;;;;5072483;28;20025;-48
2023/01/03 00:28:43;;;;;;;13.75;8.40;;;7.50;99.90;;;;;;5056155;28;20445;-49
2023/01/03 00:31:10;;;;;;;16.83;8.77;;;7.50;99.90;;;;;;5052118;28;20071;-49
2023/01/03 00:33:37;;;;;;;13.48;8.93;;;7.40;99.90;;;;;;5051576;28;20120;-49
2023/01/03 00:36:04;;;;;;;15.20;8.55;;;7.40;99.90;;;;;;5051941;28;20020;-50
2023/01/03 00:38:29;;;;;;;17.17;8.63;;;7.30;99.90;;;;;;5051687;28;20025;-50
2023/01/03 00:41:03;;;;;;;14.00;8.00;;;7.30;99.90;;;;;;5051751;28;20120;-49
2023/01/03 00:43:29;;;;;;;13.98;7.45;;;7.30;99.90;;;;;;5050992;28;20033;-49
2023/01/03 00:45:54;;;;;;;11.85;7.32;;;7.30;99.90;;;;;;5051610;28;20025;-48
2023/01/03 00:48:20;;;;;;;13.40;6.13;;;7.20;99.90;;;;;;5051284;28;20025;-49
2023/01/03 00:50:45;;;;;;;14.30;5.75;;;7.20;99.90;;;;;;5051406;28;20032;-51
2023/01/03 00:53:11;;;;;;;10.98;5.47;;;7.20;99.90;;;;;;5050995;28;20032;-53
2023/01/03 00:55:36;;;;;;;13.25;6.85;;;7.10;99.90;;;;;;5051339;28;20114;-51
2023/01/03 00:58:02;;;;;;;10.85;5.53;;;7.10;99.90;;;;;;5051090;28;20036;-48
2023/01/03 01:00:28;;;;;;;11.52;5.32;;;7.10;99.90;;;;;;5051206;28;20538;-49
2023/01/03 01:02:53;;;;;;;10.70;6.28;;;7.10;99.90;;;;;;5050597;28;20131;-50
2023/01/03 01:05:19;;;;;;;17.15;6.25;;;7.10;99.90;;;;;;5051235;28;20041;-48
2023/01/03 01:07:45;;;;;;;14.73;6.28;;;7.10;99.90;;;;;;5051121;28;20035;-48
2023/01/03 01:10:11;;;;;;;9.82;5.82;;;7.20;99.90;;;;;;5051146;28;20441;-50
2023/01/03 01:12:36;;;;;;;10.02;5.55;;;7.20;99.90;;;;;;5050555;28;20104;-50
2023/01/03 01:15:02;;;;;;;15.98;5.72;;;7.20;99.90;;;;;;5050932;28;20021;-47
2023/01/03 01:17:27;;;;;;;10.77;5.13;;;7.20;99.90;;;;;;5050246;28;20045;-50
2023/01/03 01:19:53;;;;;;;11.55;6.07;;;7.20;99.90;;;;;;5050390;28;20021;-48
2023/01/03 01:22:18;;;;;;;10.13;5.63;;;7.30;99.90;;;;;;5049394;28;20124;-47
2023/01/03 01:24:44;;;;;;;9.77;4.90;;;7.20;99.90;;;;;;5049567;28;20470;-48
2023/01/03 01:27:10;;;;;;;12.32;4.35;;;7.30;99.90;;;;;;5050682;28;20034;-47
2023/01/03 01:29:37;;;;;;;8.20;4.85;;;7.30;99.90;;;;;;5050535;28;20083;-49
2023/01/03 01:32:03;;;;;;;11.85;5.03;;;7.30;99.90;;;;;;5049986;28;20513;-48
2023/01/03 01:34:29;;;;;;;12.82;4.60;;;7.20;99.90;;;;;;5050615;28;20407;-48
2023/01/03 01:36:55;;;;;;;7.68;4.32;;;7.30;99.90;;;;;;5049114;28;20123;-48
2023/01/03 01:39:25;;;;;;;12.38;4.50;;;7.30;99.90;;;;;;5050419;28;20124;-48
2023/01/03 01:44:59;;;;;;;13.05;4.78;;;7.30;99.90;;;;;;5050629;28;20036;-48
2023/01/03 01:47:49;;;;;;;11.02;5.03;;;7.30;99.90;;;;;;5050555;28;20033;-48
2023/01/03 01:50:23;;;;;;;7.57;4.82;;;7.30;99.90;;;;;;5048784;28;20055;-48
2023/01/03 01:53:10;;;;;;;12.68;5.43;;;7.30;99.90;;;;;;5049562;28;20036;-46
2023/01/03 01:55:43;;;;;;;13.15;5.60;;;7.30;99.90;;;;;;5050519;28;20021;-47
2023/01/03 01:58:09;;;;;;;14.05;5.45;;;7.30;99.90;;;;;;5049856;28;20032;-46
2023/01/03 02:00:36;;;;;;;16.38;5.60;;;7.30;99.90;;;;;;5050042;28;20022;-49
2023/01/03 02:03:02;;;;;;;12.27;6.10;;;7.20;99.90;;;;;;5048331;28;20150;-50
2023/01/03 02:05:30;;;;;;;12.18;5.63;;;7.20;99.90;;;;;;5048379;28;20025;-47
2023/01/03 02:07:56;;;;;;;10.18;5.70;;;7.20;99.90;;;;;;5048692;28;20083;-48
2023/01/03 02:10:38;;;;;;;14.63;5.72;;;7.30;99.90;;;;;;5050130;28;20458;-48
2023/01/03 02:13:18;;;;;;;12.77;5.93;;;7.20;99.90;;;;;;5049225;28;20068;-48
2023/01/03 02:16:01;;;;;;;13.07;6.13;;;7.20;99.90;;;;;;5048927;28;20017;-50
2023/01/03 02:18:50;;;;;;;13.00;6.72;;;7.20;99.90;;;;;;5048865;28;20502;-48
2023/01/03 02:21:41;;;;;;;19.92;7.30;;;7.20;99.90;;;;;;5050226;28;20024;-50
2023/01/03 02:24:28;;;;;;;10.90;6.85;;;7.20;99.90;;;;;;5049832;28;20025;-47
2023/01/03 02:27:17;;;;;;;13.00;6.25;;;7.20;99.90;;;;;;5049870;28;20033;-50
2023/01/03 02:29:49;;;;;;;12.38;8.48;;;7.10;99.90;;;;;;5053438;28;20025;-50
2023/01/03 02:32:22;;;;;;;11.40;7.18;;;7.00;99.90;;;;;;5052251;28;20017;-47
2023/01/03 02:35:15;;;;;;;13.43;6.15;;;7.00;99.90;;;;;;5054117;28;20017;-51
2023/01/03 02:38:24;;;;;;;12.05;6.15;;;7.00;99.90;;;;;;5054021;28;20378;-48
2023/01/03 02:41:15;;;;;;;11.70;7.05;;;6.90;99.90;;;;;;5032280;28;20120;-49
2023/01/03 02:43:48;;;;;;;20.85;6.57;;;6.80;99.90;;;;;;5053199;28;20025;-48
2023/01/03 02:46:39;;;;;;;15.18;6.95;;;6.80;99.90;;;;;;5053824;28;20072;-47
2023/01/03 02:49:14;;;;;;;11.15;5.85;;;6.70;99.90;;;;;;5053547;28;20120;-47
2023/01/03 02:51:56;;;;;;;16.67;6.88;;;6.70;99.90;;;;;;5053551;28;20029;-48
2023/01/03 02:54:31;;;;;;;17.00;6.32;;;6.60;99.90;;;;;;5053828;28;20021;-48
2023/01/03 02:57:08;;;;;;;14.77;7.10;;;6.60;99.90;;;;;;5053517;28;20409;-47
2023/01/03 02:59:53;;;;;;;13.05;5.75;;;6.50;99.90;;;;;;5053090;28;20017;-48
2023/01/03 03:02:21;;;;;;;13.90;6.07;;;6.50;99.90;;;;;;5052891;28;20052;-47
2023/01/03 03:04:51;;;;;;;19.15;6.70;;;6.40;99.90;;;;;;5053447;28;20044;-47
2023/01/03 03:07:25;;;;;;;18.05;6.50;;;6.40;99.90;;;;;;5053421;28;20021;-47
2023/01/03 03:15:31;;;;;;;16.35;6.90;;;6.30;99.90;;;;;;5054122;28;20028;-47
2023/01/03 03:18:02;;;;;;;16.52;6.35;;;6.30;99.90;;;;;;5055319;28;20128;-46
2023/01/03 03:26:08;;;;;;;13.77;7.07;;;6.20;99.90;;;;;;5052868;28;20039;-49
2023/01/03 03:28:40;;;;;;;16.42;7.03;;;6.20;99.90;;;;;;5052591;28;20056;-50
2023/01/03 03:31:17;;;;;;;9.85;6.18;;;6.20;99.90;;;;;;5052810;28;20040;-48
2023/01/03 03:33:56;;;;;;;10.18;6.57;;;6.20;99.90;;;;;;5052488;28;20482;-47
2023/01/03 03:36:34;;;;;;;13.20;6.40;;;6.10;99.90;;;;;;5053000;28;20115;-47
2023/01/03 03:39:00;;;;;;;16.42;6.75;;;6.10;99.90;;;;;;5052878;28;20721;-47
2023/01/03 03:44:59;;;;;;;14.05;6.53;;;6.00;99.90;;;;;;5052973;28;20074;-47
2023/01/03 03:47:42;;;;;;;13.45;6.72;;;6.00;99.90;;;;;;5053033;28;20017;-48
2023/01/03 03:50:31;;;;;;;9.02;6.40;;;6.00;99.90;;;;;;5052780;28;20025;-48
2023/01/03 03:53:00;;;;;;;16.30;7.20;;;5.90;99.90;;;;;;5052216;28;20017;-46
2023/01/03 03:55:33;;;;;;;15.68;6.47;;;5.90;99.90;;;;;;5052593;28;20032;-47
2023/01/03 03:58:10;;;;;;;11.40;6.55;;;5.90;99.90;;;;;;5052572;28;20456;-48
2023/01/03 04:00:39;;;;;;;17.45;7.35;;;5.90;99.90;;;;;;5052495;28;20036;-49
2023/01/03 04:03:06;;;;;;;17.08;8.05;;;5.90;99.90;;;;;;5051969;28;20017;-49
2023/01/03 04:05:38;;;;;;;22.40;7.78;;;5.90;99.90;;;;;;5052551;28;20079;-47
2023/01/03 04:08:04;;;;;;;19.02;8.25;;;5.90;99.90;;;;;;5052197;28;20109;-47
2023/01/03 04:10:29;;;;;;;17.25;7.47;;;5.80;99.90;;;;;;5052187;28;20108;-46
2023/01/03 04:12:55;;;;;;;17.58;6.43;;;5.90;99.90;;;;;;5051444;28;20029;-50
2023/01/03 04:15:21;;;;;;;15.05;7.53;;;5.90;99.90;;;;;;5051827;28;20025;-47
2023/01/03 04:17:47;;;;;;;15.75;7.00;;;5.80;99.90;;;;;;5051911;28;20586;-50
2023/01/03 04:20:13;;;;;;;21.70;7.47;;;5.80;99.90;;;;;;5052093;28;20025;-47
2023/01/03 04:22:39;;;;;;;14.20;7.03;;;5.80;99.90;;;;;;5051468;28;20363;-47
2023/01/03 04:25:05;;;;;;;17.55;6.55;;;5.80;99.90;;;;;;5051834;28;20039;-46
2023/01/03 04:27:30;;;;;;;13.18;7.22;;;5.90;99.90;;;;;;5051633;28;20029;-47
2023/01/03 04:29:56;;;;;;;14.23;6.72;;;5.90;99.90;;;;;;5048390;28;20064;-50
2023/01/03 04:32:21;;;;;;;21.45;8.00;;;5.90;99.90;;;;;;5034192;28;20109;-49
2023/01/03 04:34:47;;;;;;;13.18;8.18;;;5.80;99.90;;;;;;5032715;28;20501;-48
2023/01/03 04:37:13;;;;;;;16.95;8.25;;;5.90;99.90;;;;;;5037086;28;20723;-50
2023/01/03 04:39:38;;;;;;;13.40;6.05;;;5.90;99.90;;;;;;5045797;28;20044;-47
2023/01/03 04:44:00;;;;;;;15.35;7.05;;;5.90;99.90;;;;;;5051059;28;20486;-48
2023/01/03 04:44:49;;;;;;;19.15;7.47;;;5.90;99.90;;;;;;5051267;28;20029;-48
2023/01/03 04:47:15;;;;;;;17.63;7.38;;;5.90;99.90;;;;;;5051552;28;20033;-46
2023/01/03 04:49:45;;;;;;;16.70;8.43;;;6.00;99.90;;;;;;5051583;28;20040;-48
2023/01/03 04:52:11;;;;;;;15.25;7.03;;;6.00;99.90;;;;;;5049848;28;20148;-49
2023/01/03 04:54:38;;;;;;;16.40;9.35;;;6.00;99.90;;;;;;5042745;28;20040;-49
2023/01/03 04:57:03;;;;;;;16.02;8.35;;;6.00;99.90;;;;;;5042431;28;20394;-48
2023/01/03 04:59:29;;;;;;;13.10;6.93;;;6.00;99.90;;;;;;5044942;28;20021;-47
2023/01/03 05:01:54;;;;;;;22.58;7.80;;;6.00;99.90;;;;;;5034501;28;20036;-47
2023/01/03 05:04:20;;;;;;;18.23;7.60;;;6.00;99.90;;;;;;5038654;28;20104;-47
2023/01/03 05:06:45;;;;;;;22.73;8.40;;;6.00;99.90;;;;;;5051056;28;20056;-47
2023/01/03 05:09:11;;;;;;;12.85;6.95;;;6.00;99.90;;;;;;5050985;28;20033;-49
2023/01/03 05:11:36;;;;;;;17.77;7.15;;;5.90;99.90;;;;;;5050690;28;20071;-50
2023/01/03 05:14:02;;;;;;;13.35;7.47;;;5.90;99.90;;;;;;5050479;28;20025;-46
2023/01/03 05:16:27;;;;;;;14.02;6.43;;;5.90;99.90;;;;;;5051221;28;20078;-49
2023/01/03 05:18:54;;;;;;;21.98;7.38;;;5.90;99.90;;;;;;5050944;28;20025;-46
2023/01/03 05:26:52;;;;;;;17.27;7.47;;;5.90;99.90;;;;;;5050909;28;20039;-45
2023/01/03 05:29:20;;;;;;;13.07;6.25;;;5.80;99.90;;;;;;5049239;28;20120;-48
2023/01/03 05:31:46;;;;;;;16.25;7.20;;;5.80;99.90;;;;;;5050132;28;20043;-47
2023/01/03 05:34:12;;;;;;;10.75;6.72;;;5.80;99.90;;;;;;5050512;28;20021;-47
2023/01/03 05:36:37;;;;;;;13.85;6.78;;;5.70;99.90;;;;;;5050348;28;20017;-47
2023/01/03 05:39:03;;;;;;;18.67;6.80;;;5.70;99.90;;;;;;5050665;28;20028;-46
2023/01/03 05:44:13;;;;;;;13.38;7.10;;;5.70;99.90;;;;;;5050412;28;20086;-46
2023/01/03 05:46:39;;;;;;;11.35;6.78;;;5.70;99.90;;;;;;5050260;28;20033;-47
2023/01/03 05:49:04;;;;;;;13.48;6.95;;;5.70;99.90;;;;;;5050098;28;20090;-46
2023/01/03 05:51:30;;;;;;;11.57;6.05;;;5.70;99.90;;;;;;5049173;28;20100;-45
2023/01/03 05:53:55;;;;;;;14.07;6.63;;;5.70;99.90;;;;;;5048015;28;20049;-49
2023/01/03 05:56:21;;;;;;;13.45;6.15;;;5.70;99.90;;;;;;5048814;28;20052;-46
2023/01/03 05:58:46;;;;;;;18.38;7.57;;;5.70;99.90;;;;;;5048636;28;20052;-46
2023/01/03 06:01:13;;;;;;;17.92;8.07;;;5.70;99.90;;;;;;5047537;28;20029;-47
2023/01/03 06:03:42;;;;;;;15.18;6.57;;;5.70;99.90;;;;;;5039295;28;20044;-47
2023/01/03 06:06:10;;;;;;;13.27;6.22;;;5.60;99.90;;;;;;5039441;28;20064;-48
2023/01/03 06:08:36;;;;;;;10.50;5.95;;;5.60;99.90;;;;;;5030419;28;20021;-50
2023/01/03 06:11:10;;;;;;;12.02;6.70;;;5.60;99.90;;;;;;5041894;28;20093;-48
2023/01/03 06:13:37;;;;;;;11.73;6.28;;;5.60;99.90;;;;;;5038575;28;20823;-48
2023/01/03 06:18:56;;;;;;;12.13;6.13;;;5.60;99.90;;;;;;5050183;28;20136;-46
2023/01/03 06:21:22;;;;;;;10.40;6.95;;;5.50;99.90;;;;;;5045555;28;20120;-47
2023/01/03 06:23:47;;;;;;;14.80;6.97;;;5.50;99.90;;;;;;5039053;28;20021;-47
2023/01/03 06:26:14;;;;;;;17.60;7.60;;;5.50;99.90;;;;;;5040666;28;20152;-46
2023/01/03 06:28:40;;;;;;;16.77;7.40;;;5.50;99.90;;;;;;5042828;28;20370;-47
2023/01/03 06:31:06;;;;;;;13.45;7.03;;;5.50;99.90;;;;;;5054824;28;20049;-46
2023/01/03 06:33:31;;;;;;;15.82;7.20;;;5.60;99.90;;;;;;5048485;28;20029;-46
2023/01/03 06:36:01;;;;;;;12.50;7.18;;;5.60;99.90;;;;;;5048814;28;20036;-46
2023/01/03 06:38:27;;;;;;;15.43;8.03;;;5.60;99.90;;;;;;5049126;28;20035;-47
2023/01/03 06:40:52;;;;;;;15.88;8.05;;;5.70;99.90;;;;;;5049074;28;20264;-48
2023/01/03 06:43:18;;;;;;;11.75;7.30;;;5.70;99.90;;;;;;5048633;28;20029;-48
2023/01/03 06:54:00;;;;;;;15.70;8.48;;;5.90;99.90;;;;;;5047654;28;20036;-46
2023/01/03 06:56:25;;;;;;;16.17;8.27;;;5.90;99.90;;;;;;5046128;28;20021;-48
2023/01/03 06:58:51;;;;;;;15.43;7.80;;;6.00;99.90;;;;;;5048475;28;20025;-47
2023/01/03 07:01:18;;;;;;;18.83;9.00;;;6.00;99.90;;;;;;5043743;28;20021;-46
2023/01/03 07:03:43;;;;;;;16.35;8.70;;;6.10;99.90;;;;;;5048318;28;20079;-47
2023/01/03 07:06:09;;;;;;;15.80;7.60;;;6.10;99.90;;;;;;5047616;28;20508;-46
2023/01/03 07:08:35;;;;;;;14.60;7.57;;;6.20;99.90;;;;;;5048917;28;20031;-47
2023/01/03 07:11:00;;;;;;;17.05;7.70;;;6.10;99.90;;;;;;5047759;28;20040;-49
2023/01/03 07:16:18;;;;;;;17.02;8.00;;;6.20;99.90;;;;;;5047071;28;20440;-46
2023/01/03 07:18:44;;;;;;;14.07;8.02;;;6.20;99.90;;;;;;5040035;28;20100;-47
2023/01/03 07:21:09;;;;;;;12.85;7.88;;;6.20;99.90;;;;;;5051750;28;20025;-46
2023/01/03 07:23:35;;;;;;;15.20;8.95;;;6.20;99.90;;;;;;5051478;28;20074;-47
2023/01/03 07:26:01;;;;;;;15.57;9.30;;;6.20;99.90;;;;;;5052446;28;20028;-49
2023/01/03 07:28:27;;;;;;;19.83;9.80;;;6.30;99.90;;;;;;5052649;28;20032;-46
2023/01/03 07:30:59;;;;;;;14.85;9.85;;;6.30;99.90;;;;;;5052048;28;20021;-46
2023/01/03 07:33:24;;;;;;;19.45;10.20;;;6.30;99.90;;;;;;5052979;28;20023;-47
2023/01/03 07:35:50;;;;;;;17.67;10.20;;;6.20;99.90;;;;;;5052519;28;20477;-48
2023/01/03 07:38:16;;;;;;;14.32;8.60;;;6.20;99.90;;;;;;5052173;28;20422;-50
2023/01/03 07:40:41;;;;;;;23.65;10.15;;;6.30;99.90;;;;;;5050971;28;20108;-49
2023/01/03 07:45:56;;;;;;;19.38;10.15;;;6.30;99.90;;;;;;5052311;28;20452;-47
2023/01/03 07:48:21;;;;;;;15.68;9.95;;;6.20;99.90;;;;;;5052075;28;20021;-47
2023/01/03 07:50:47;;;;;;;17.02;10.00;;;6.30;99.90;;;;;;5052236;28;20033;-47
2023/01/03 07:53:15;;;;;;;17.52;10.77;;;6.30;99.90;;;;;;5051890;28;20082;-50
2023/01/03 07:55:42;;;;;;;20.00;10.70;;;6.40;99.90;;;;;;5050969;28;20028;-49
2023/01/03 07:58:07;;;;;;;19.95;10.20;;;6.30;99.90;;;;;;5055109;28;20550;-48
2023/01/03 08:00:33;;;;;;;20.10;9.63;;;6.30;99.90;;;;;;5051971;28;20025;-47
2023/01/03 08:02:58;;;;;;;20.25;9.15;;;6.40;99.90;;;;;;5051680;28;20033;-49
2023/01/03 08:05:24;;;;;;;21.75;10.95;;;6.40;99.90;;;;;;5054844;28;20028;-48
2023/01/03 08:07:51;;;;;;;16.98;10.10;;;6.30;99.90;;;;;;5051941;28;20032;-46
2023/01/03 08:13:16;;;;;;;26.08;11.13;;;6.30;99.90;;;;;;5031335;28;20044;-48
2023/01/03 08:15:47;;;;;;;;;;;6.30;99.90;;;;;;5031789;28;20359;-46
2023/01/03 08:18:14;;;;;;;24.23;12.52;;;6.30;99.90;;;;;;5044814;28;19911;-47
2023/01/03 08:20:40;;;;;;;23.38;12.25;;;6.30;99.90;;;;;;5050210;28;20024;-46
2023/01/03 08:23:06;;;;;;;26.65;13.00;;;6.30;99.90;;;;;;5049934;28;20032;-46
2023/01/03 08:25:31;;;;;;;25.38;10.80;;;6.30;99.90;;;;;;5050488;28;20052;-47
2023/01/03 08:27:58;;;;;;;23.20;11.55;;;6.30;99.90;;;;;;5050145;28;20036;-46
2023/01/03 08:30:23;;;;;;;22.10;12.02;;;6.40;99.90;;;;;;5050217;28;20084;-47
2023/01/03 08:32:50;;;;;;;21.88;12.52;;;6.50;99.90;;;;;;5049649;28;20064;-47
2023/01/03 08:35:16;;;;;;;23.35;12.02;;;6.50;99.90;;;;;;5050131;28;20371;-47
2023/01/03 08:37:43;;;;;;;23.10;13.85;;;6.40;99.90;;;;;;5050925;28;20082;-47
2023/01/03 08:40:11;;;;;;;25.27;14.75;;;6.50;99.90;;;;;;5051231;28;20167;-46
2023/01/03 08:42:37;;;;;;;23.20;14.20;;;6.50;99.90;;;;;;5050795;28;20351;-46
2023/01/03 08:45:08;;;;;;;25.98;14.27;;;6.60;99.90;;;;;;5051075;28;20032;-47
2023/01/03 08:47:34;;;;;;;27.02;14.25;;;6.50;99.90;;;;;;5051122;28;20075;-48
2023/01/03 08:50:01;;;;;;;25.95;13.85;;;6.50;99.90;;;;;;5051149;28;20029;-46
2023/01/03 08:52:26;;;;;;;25.75;15.57;;;6.50;99.90;;;;;;5050673;28;20024;-46
2023/01/03 08:54:52;;;;;;;27.08;15.07;;;6.40;99.90;;;;;;5051368;28;20552;-47
2023/01/03 08:57:17;;;;;;;26.60;15.50;;;6.50;99.90;;;;;;5051027;28;20367;-47
2023/01/03 08:59:43;;;;;;;31.83;15.88;;;6.60;99.90;;;;;;5060041;28;20507;-46
2023/01/03 09:02:08;;;;;;;22.23;13.40;;;6.60;99.90;;;;;;5070311;28;20493;-49
2023/01/03 09:04:34;;;;;;;31.27;15.93;;;6.70;99.90;;;;;;5070455;28;20038;-46
2023/01/03 09:06:59;;;;;;;26.92;16.10;;;6.80;99.90;;;;;;5066397;28;20100;-47
2023/01/03 09:09:25;;;;;;;27.85;15.55;;;6.90;99.90;;;;;;5050274;28;20466;-46
2023/01/03 09:11:50;;;;;;;28.40;15.30;;;6.90;99.90;;;;;;5049736;28;20037;-48
2023/01/03 09:14:16;;;;;;;23.58;14.48;;;6.90;99.90;;;;;;5050613;28;20028;-46
2023/01/03 09:16:42;;;;;;;26.13;14.43;;;7.00;99.90;;;;;;5050209;28;20014;-47
2023/01/03 09:19:07;;;;;;;22.63;13.23;;;7.00;99.90;;;;;;5050404;28;20451;-49
2023/01/03 09:21:33;;;;;;;31.15;14.77;;;7.10;99.90;;;;;;5050161;28;20071;-47
2023/01/03 09:23:58;;;;;;;25.88;15.48;;;7.20;99.90;;;;;;5049833;28;20159;-46
2023/01/03 09:26:24;;;;;;;31.70;14.77;;;7.20;99.90;;;;;;5048755;28;20098;-46
2023/01/03 09:28:49;;;;;;;25.92;13.55;;;7.30;99.90;;;;;;5049646;28;20036;-46
2023/01/03 09:31:15;;;;;;;25.13;13.75;;;7.20;99.90;;;;;;5050097;28;20116;-46
2023/01/03 09:33:41;;;;;;;24.13;14.40;;;7.30;99.90;;;;;;5049624;28;20071;-48
2023/01/03 09:36:07;;;;;;;22.02;13.10;;;7.30;99.90;;;;;;5050327;28;20021;-47
2023/01/03 09:38:32;;;;;;;24.30;15.32;;;7.40;99.90;;;;;;5049339;28;20021;-47
2023/01/03 09:41:07;;;;;;;23.48;12.75;;;7.40;99.90;;;;;;5050102;28;20087;-47
2023/01/03 09:43:39;;;;;;;20.77;13.40;;;7.40;99.90;;;;;;5049628;28;20024;-50
2023/01/03 09:46:05;;;;;;;21.33;13.57;;;7.40;99.90;;;;;;5050101;28;20048;-47
2023/01/03 09:48:37;;;;;;;18.55;12.38;;;7.40;99.90;;;;;;5048928;28;20049;-47
2023/01/03 10:03:42;;;;;;;18.38;12.50;;;7.40;99.90;;;;;;5048460;28;20027;-49
2023/01/03 10:05:15;;;;;;;21.33;14.90;;;7.60;99.90;;;;;;5048845;28;20051;-47
2023/01/03 10:08:20;;;;;;;20.60;13.68;;;7.80;99.90;;;;;;5047513;28;20473;-46
2023/01/03 10:10:57;;;;;;;21.20;14.13;;;7.90;99.90;;;;;;5048633;28;20037;-47
2023/01/03 10:13:54;;;;;;;23.20;13.93;;;7.70;99.90;;;;;;5048233;28;20039;-47
2023/01/03 10:16:34;;;;;;;28.35;15.63;;;8.00;99.90;;;;;;5048972;28;20132;-47
2023/01/03 10:19:09;;;;;;;26.13;15.57;;;8.20;99.90;;;;;;5048816;28;20436;-49
2023/01/03 10:22:03;;;;;;;25.25;15.30;;;8.20;99.90;;;;;;5047276;28;20029;-47
2023/01/03 10:24:31;;;;;;;23.25;15.90;;;7.90;99.90;;;;;;5048758;28;20107;-49
2023/01/03 10:27:18;;;;;;;26.50;18.08;;;8.00;99.90;;;;;;5048767;28;20025;-48
2023/01/03 10:29:45;;;;;;;24.50;16.27;;;7.90;99.90;;;;;;5047197;28;20017;-47
2023/01/03 10:32:39;;;;;;;26.83;18.10;;;7.90;99.90;;;;;;5048352;28;20025;-47
2023/01/03 10:35:29;;;;;;;28.35;17.02;;;8.00;99.90;;;;;;5048398;28;20095;-47
2023/01/03 10:37:56;;;;;;;26.38;17.02;;;8.00;99.90;;;;;;5048341;28;20446;-50
2023/01/03 10:40:51;;;;;;;22.88;15.35;;;8.00;99.90;;;;;;5048578;28;20370;-53
2023/01/03 10:43:28;;;;;;;24.38;15.55;;;8.10;99.90;;;;;;5045893;28;20075;-47
2023/01/03 10:46:05;;;;;;;21.08;14.32;;;8.40;99.90;;;;;;5046938;28;20510;-47
2023/01/03 10:48:45;;;;;;;22.10;14.15;;;9.20;99.90;;;;;;5047982;28;20029;-47
2023/01/03 10:51:31;;;;;;;18.58;13.52;;;10.70;99.90;;;;;;5052607;28;20013;-47
2023/01/03 10:53:59;;;;;;;18.80;12.38;;;12.20;99.90;;;;;;5051987;28;20079;-47
2023/01/03 10:56:27;;;;;;;18.60;12.05;;;13.10;99.90;;;;;;5051777;28;20106;-47
2023/01/03 10:59:20;;;;;;;12.95;9.85;;;13.90;99.60;;;;;;5050802;28;20021;-50
2023/01/03 11:02:07;;;;;;;12.88;11.05;;;14.90;96.90;;;;;;5050897;28;20631;-48
2023/01/03 11:04:33;;;;;;;12.05;9.45;;;15.80;93.00;;;;;;5051499;28;20067;-49
2023/01/03 11:07:01;;;;;;;13.68;8.73;;;15.50;93.50;;;;;;5052466;28;20052;-48
2023/01/03 11:09:57;;;;;;;15.88;9.13;;;16.30;92.40;;;;;;5051216;28;20501;-50
2023/01/03 11:12:38;;;;;;;11.02;8.13;;;17.10;88.80;;;;;;5051286;28;20068;-49
2023/01/03 11:15:15;;;;;;;10.23;7.63;;;17.70;86.90;;;;;;5053104;28;20021;-49
2023/01/03 11:17:55;;;;;;;11.30;8.13;;;18.40;83.50;;;;;;5053023;28;20105;-48
2023/01/03 11:20:24;;;;;;;12.55;8.95;;;17.80;79.70;;;;;;5051319;28;20481;-48
2023/01/03 11:23:10;;;;;;;11.95;8.15;;;17.10;82.00;;;;;;5052309;28;20041;-50
2023/01/03 11:26:11;;;;;;;12.60;8.55;;;16.00;84.60;;;;;;5053037;28;20090;-50
2023/01/03 11:28:39;;;;;;;13.30;8.68;;;14.50;89.50;;;;;;5053097;28;20024;-48
2023/01/03 11:31:15;;;;;;;9.68;8.50;;;13.60;91.20;;;;;;5053156;28;20033;-50
2023/01/03 11:34:05;;;;;;;17.63;10.27;;;12.80;92.40;;;;;;5050658;28;20046;-47
2023/01/03 11:36:48;;;;;;;11.70;9.20;;;11.80;94.40;;;;;;5052793;28;20043;-47
2023/01/03 11:39:19;;;;;;;10.60;8.43;;;11.20;96.50;;;;;;5052427;28;20108;-47
2023/01/03 11:42:09;;;;;;;11.38;9.20;;;10.80;97.60;;;;;;5052242;28;20021;-47
2023/01/03 11:44:46;;;;;;;14.63;9.75;;;10.50;99.20;;;;;;5052497;28;20036;-47
2023/01/03 11:47:22;;;;;;;14.68;9.90;;;10.30;99.50;;;;;;5052600;28;20029;-48
2023/01/03 11:50:08;;;;;;;17.48;10.02;;;10.20;99.90;;;;;;5052157;28;20155;-50
2023/01/03 11:52:44;;;;;;;21.33;13.63;;;10.20;99.90;;;;;;5051818;28;20087;-47
2023/01/03 11:55:34;;;;;;;17.45;10.70;;;10.20;99.90;;;;;;5052504;28;20025;-48
2023/01/03 11:58:25;;;;;;;14.35;9.68;;;10.30;99.90;;;;;;5052373;28;20029;-48
2023/01/03 12:01:16;;;;;;;15.27;9.98;;;10.10;99.90;;;;;;5050674;28;20021;-48
2023/01/03 12:03:53;;;;;;;16.08;9.55;;;10.00;99.90;;;;;;5034880;28;20086;-48
2023/01/03 12:06:36;;;;;;;12.77;8.68;;;9.80;99.90;;;;;;5052287;28;20021;-50
2023/01/03 12:09:20;;;;;;;10.95;8.15;;;9.70;99.90;;;;;;5052162;28;20532;-48
2023/01/03 12:12:01;;;;;;;14.73;9.25;;;9.60;99.90;;;;;;5051613;28;20040;-49
2023/01/03 12:14:42;;;;;;;12.20;8.02;;;9.40;99.90;;;;;;5052083;28;20035;-49
2023/01/03 12:17:26;;;;;;;17.15;8.63;;;9.40;99.90;;;;;;5051852;28;20271;-47
2023/01/03 12:19:57;;;;;;;13.40;8.82;;;9.30;99.90;;;;;;5051431;28;20433;-49
2023/01/03 12:22:36;;;;;;;14.95;9.77;;;9.20;99.90;;;;;;5049589;28;20412;-50
2023/01/03 12:25:16;;;;;;;15.18;9.05;;;9.10;99.90;;;;;;5051489;28;20033;-47
2023/01/03 12:28:06;;;;;;;11.37;7.80;;;9.10;99.90;;;;;;5049429;28;20040;-47
2023/01/03 12:30:47;;;;;;;15.38;8.95;;;9.00;99.90;;;;;;5070328;28;20026;-46
2023/01/03 12:33:23;;;;;;;11.10;8.18;;;8.90;99.90;;;;;;5068585;28;20036;-50
2023/01/03 12:36:43;;;;;;;13.10;7.97;;;8.80;99.90;;;;;;5051775;28;20100;-47
2023/01/03 12:39:30;;;;;;;12.20;7.55;;;8.80;99.90;;;;;;5038108;28;20037;-48
2023/01/03 12:42:15;;;;;;;13.20;7.93;;;8.70;99.90;;;;;;5029451;28;20025;-47
2023/01/03 12:44:43;;;;;;;11.60;7.32;;;8.70;99.90;;;;;;5031141;28;20548;-47
2023/01/03 12:47:20;;;;;;;11.80;7.40;;;8.60;99.90;;;;;;5031648;28;20033;-47
2023/01/03 12:49:52;;;;;;;12.65;8.00;;;8.60;99.90;;;;;;5031243;28;20114;-48
2023/01/03 12:52:20;;;;;;;12.55;7.43;;;8.60;99.90;;;;;;5029377;28;20026;-46
2023/01/03 12:55:00;;;;;;;10.77;6.70;;;8.50;99.90;;;;;;5031321;28;20029;-50
2023/01/03 12:58:03;;;;;;;11.93;6.32;;;8.60;99.90;;;;;;5031351;28;20076;-48
2023/01/03 13:00:34;;;;;;;10.40;6.35;;;8.50;99.90;;;;;;5027855;28;20029;-48
2023/01/03 13:03:17;;;;;;;12.07;6.05;;;8.50;99.90;;;;;;5030923;28;20021;-47
2023/01/03 13:05:54;;;;;;;7.78;4.97;;;8.50;99.90;;;;;;5031302;28;20038;-47
2023/01/03 13:08:28;;;;;;;8.52;4.47;;;8.50;99.90;;;;;;5041011;28;20112;-48
2023/01/03 13:11:00;;;;;;;8.90;5.32;;;8.50;99.90;;;;;;5050816;28;20152;-49
2023/01/03 13:13:26;;;;;;;8.65;4.63;;;8.50;99.90;;;;;;5049564;28;20025;-48
2023/01/03 13:15:52;;;;;;;11.52;5.35;;;8.50;99.90;;;;;;5050931;28;20528;-50
2023/01/03 13:18:31;;;;;;;8.82;4.68;;;8.50;99.90;;;;;;5050922;28;20519;-48
2023/01/03 13:20:56;;;;;;;7.68;4.18;;;8.40;99.90;;;;;;5050817;28;20017;-47
2023/01/03 13:23:48;;;;;;;8.77;4.43;;;8.40;99.90;;;;;;5050401;28;20025;-47
2023/01/03 13:27:00;;;;;;;10.00;4.35;;;8.40;99.90;;;;;;5050876;28;20108;-48
2023/01/03 13:29:44;;;;;;;9.38;3.78;;;8.40;99.90;;;;;;5050292;28;20429;-46
2023/01/03 13:32:24;;;;;;;4.65;3.15;;;8.40;99.90;;;;;;5049898;28;20103;-47
2023/01/03 13:34:53;;;;;;;5.88;4.10;;;8.40;99.90;;;;;;5050669;28;20024;-47
2023/01/03 13:37:20;;;;;;;8.50;4.47;;;8.30;99.90;;;;;;5041121;28;20064;-47
2023/01/03 13:39:49;;;;;;;9.18;4.15;;;8.40;99.90;;;;;;5041843;28;20029;-48
2023/01/03 13:42:34;;;;;;;9.05;4.30;;;8.30;99.90;;;;;;5040691;28;20025;-49
2023/01/03 13:45:16;;;;;;;6.60;3.38;;;8.30;99.90;;;;;;5040247;28;20038;-48
2023/01/03 13:47:47;;;;;;;5.95;3.10;;;8.30;99.90;;;;;;5043406;28;20021;-47
2023/01/03 13:50:22;;;;;;;4.47;3.42;;;8.20;99.90;;;;;;5047222;28;20025;-47
2023/01/03 13:53:09;;;;;;;3.65;2.78;;;8.20;99.90;;;;;;5046518;28;20055;-48
2023/01/03 13:55:55;;;;;;;3.97;2.92;;;8.20;99.90;;;;;;5046486;28;20021;-50
2023/01/03 13:58:26;;;;;;;7.75;3.72;;;8.20;99.90;;;;;;5049027;28;20017;-48
2023/01/03 14:00:54;;;;;;;4.88;3.25;;;8.20;99.90;;;;;;5046425;28;20013;-48
2023/01/03 14:03:57;;;;;;;5.72;3.78;;;8.20;99.90;;;;;;5049362;28;20069;-48
2023/01/03 14:06:56;;;;;;;5.63;3.40;;;8.20;99.90;;;;;;5030229;28;20124;-50
2023/01/03 14:09:53;;;;;;;6.00;3.30;;;8.20;99.90;;;;;;5030193;28;20556;-48